createdAt,value
2023-02-09T02:22:53.596Z,64.22
2023-02-09T02:26:47.673Z,69.62
2023-02-09T02:30:49.693Z,93.10
2023-02-09T02:34:34.011Z,106.63
2023-02-09T02:42:19.729Z,110.08
2023-02-09T02:46:06.368Z,95.65
2023-02-09T02:52:57.077Z,70.57
2023-02-09T02:56:10.013Z,64.75
2023-02-09T02:59:39.825Z,63.68
2023-02-09T03:03:13.129Z,57.73
2023-02-09T03:06:35.483Z,54.00
2023-02-09T03:09:55.465Z,60.20
2023-02-09T03:13:37.577Z,52.38
2023-02-09T03:17:31.869Z,48.40
2023-02-09T03:25:12.772Z,56.48
2023-02-09T03:28:40.138Z,48.68
2023-02-09T03:32:07.681Z,54.67
2023-02-09T03:35:42.950Z,50.20
2023-02-09T03:39:24.753Z,46.20
2023-02-09T03:42:51.198Z,50.25
2023-02-09T03:46:28.028Z,54.93
2023-02-09T03:49:45.103Z,56.75
2023-02-09T03:53:14.701Z,62.80
2023-02-09T03:56:57.949Z,64.22
2023-02-09T04:00:36.423Z,59.55
2023-02-09T04:03:56.162Z,61.90
2023-02-09T04:11:08.677Z,71.75
2023-02-09T04:14:31.770Z,86.05
2023-02-09T04:17:51.955Z,84.17
2023-02-09T04:21:16.772Z,82.50
2023-02-09T04:24:47.705Z,90.85
2023-02-09T04:28:16.231Z,92.33
2023-02-09T04:35:52.336Z,91.08
2023-02-09T04:50:12.059Z,81.02
2023-02-09T05:01:40.086Z,123.55
2023-02-09T05:08:52.840Z,115.70
2023-02-09T05:12:06.090Z,101.72
2023-02-09T05:33:35.782Z,99.28
2023-02-09T05:37:20.256Z,90.57
2023-02-09T05:48:03.564Z,69.77
2023-02-09T05:51:25.197Z,68.72
2023-02-09T06:25:13.702Z,75.12
2023-02-09T06:32:49.240Z,81.45
2023-02-09T06:40:42.622Z,73.20
2023-02-09T06:44:21.003Z,72.47
2023-02-09T06:54:16.764Z,64.87
2023-02-09T09:52:53.039Z,47.40
2023-02-09T09:59:24.170Z,37.67
2023-02-09T10:28:04.159Z,37.67
2023-02-09T10:31:57.431Z,36.28
2023-02-09T13:55:13.773Z,51.48
2023-02-09T14:06:08.685Z,44.75
2023-02-09T14:13:47.752Z,46.90
2023-02-09T15:12:16.083Z,46.92
2023-02-09T15:20:22.040Z,55.50
2023-02-09T15:48:56.610Z,65.15
2023-02-09T15:52:46.092Z,53.55
2023-02-09T16:07:14.130Z,55.88
2023-02-09T16:11:03.745Z,54.77
2023-02-09T16:17:49.139Z,52.20
2023-02-09T16:21:03.572Z,45.90
2023-02-09T16:24:19.263Z,55.78
2023-02-09T16:27:49.002Z,52.58
2023-02-09T16:31:10.477Z,59.30
2023-02-09T16:34:38.303Z,95.35
2023-02-09T16:37:49.195Z,185.30
2023-02-09T16:41:01.779Z,139.80
2023-02-09T16:44:39.567Z,96.82
2023-02-09T16:48:03.550Z,63.92
2023-02-09T16:51:14.412Z,52.08
2023-02-09T16:54:25.322Z,55.58
2023-02-09T16:57:40.193Z,53.95
2023-02-09T17:00:53.505Z,53.60
2023-02-09T17:04:05.726Z,56.02
2023-02-09T17:07:12.617Z,63.73
2023-02-09T17:10:31.507Z,67.00
2023-02-09T17:13:40.974Z,58.98
2023-02-09T17:16:53.950Z,44.80
2023-02-09T17:19:59.441Z,48.95
2023-02-09T17:23:08.446Z,57.62
2023-02-09T17:26:21.712Z,47.10
2023-02-09T17:29:31.930Z,46.98
2023-02-09T17:32:38.241Z,47.25
2023-02-09T17:36:22.293Z,45.35
2023-02-09T17:39:02.276Z,51.00
2023-02-09T17:42:13.303Z,40.83
2023-02-09T17:45:24.518Z,36.03
2023-02-09T17:48:39.045Z,42.45
2023-02-09T17:51:53.417Z,49.67
2023-02-09T17:55:07.564Z,49.25
2023-02-09T18:01:44.542Z,47.05
2023-02-09T18:04:52.879Z,77.90
2023-02-09T18:08:00.343Z,55.25
2023-02-09T18:11:09.301Z,64.42
2023-02-09T18:14:17.225Z,55.05
2023-02-09T18:17:26.934Z,59.18
2023-02-09T18:20:40.791Z,60.67
2023-02-09T18:23:55.528Z,77.17
2023-02-09T18:27:07.330Z,75.83
2023-02-09T18:30:20.265Z,61.35
2023-02-09T18:33:33.830Z,60.17
2023-02-09T18:36:46.236Z,55.30
2023-02-09T18:39:56.316Z,54.67
2023-02-09T18:43:06.754Z,56.42
2023-02-09T18:46:18.533Z,68.47
2023-02-09T18:49:27.770Z,72.70
2023-02-09T18:52:42.012Z,64.67
2023-02-09T18:55:55.324Z,57.03
2023-02-09T18:59:05.071Z,57.95
2023-02-09T19:02:17.545Z,55.83
2023-02-09T19:05:29.025Z,56.28
2023-02-09T19:08:47.868Z,53.85
2023-02-09T19:11:57.407Z,76.35
2023-02-09T19:15:19.223Z,58.80
2023-02-09T19:18:35.802Z,62.90
2023-02-09T19:21:45.911Z,90.35
2023-02-09T19:25:02.451Z,59.80
2023-02-09T19:28:13.558Z,61.20
2023-02-09T19:31:34.287Z,59.15
2023-02-09T19:34:46.918Z,63.70
2023-02-09T19:37:57.124Z,60.98
2023-02-09T19:41:10.815Z,51.73
2023-02-09T19:44:26.603Z,55.95
2023-02-09T19:47:39.539Z,58.38
2023-02-09T19:50:51.503Z,57.95
2023-02-09T19:54:01.654Z,56.20
2023-02-09T19:57:16.843Z,58.48
2023-02-09T20:00:32.202Z,54.03
2023-02-09T20:03:50.143Z,56.05
2023-02-09T20:06:56.929Z,58.08
2023-02-09T20:10:05.196Z,53.75
2023-02-09T20:13:13.058Z,54.25
2023-02-09T20:16:42.390Z,55.15
2023-02-09T20:19:59.328Z,63.00
2023-02-09T20:23:18.333Z,64.87
2023-02-09T20:26:34.393Z,61.73
2023-02-09T20:29:47.315Z,57.62
2023-02-09T20:33:10.488Z,66.97
2023-02-09T20:36:28.564Z,57.55
2023-02-09T20:39:38.882Z,55.12
2023-02-09T20:43:15.584Z,60.17
2023-02-09T20:46:46.838Z,57.23
2023-02-09T20:50:05.521Z,61.35
2023-02-09T20:53:18.441Z,65.05
2023-02-09T20:56:28.589Z,70.30
2023-02-09T20:59:42.996Z,69.67
2023-02-09T21:02:54.304Z,76.65
2023-02-09T21:06:10.654Z,64.92
2023-02-09T21:09:39.002Z,62.55
2023-02-09T21:12:50.089Z,71.70
2023-02-09T21:16:06.429Z,68.87
2023-02-09T21:19:20.617Z,74.80
2023-02-09T21:22:39.240Z,64.58
2023-02-09T21:25:50.355Z,65.05
2023-02-09T21:29:06.557Z,69.10
2023-02-09T21:32:25.662Z,71.97
2023-02-09T21:35:39.126Z,77.67
2023-02-09T21:38:56.965Z,61.05
2023-02-09T21:42:27.094Z,56.85
2023-02-09T21:45:36.335Z,65.92
2023-02-09T21:48:51.711Z,62.50
2023-02-09T21:52:04.527Z,60.60
2023-02-09T21:55:15.956Z,62.50
2023-02-09T21:58:08.681Z,57.93
2023-02-09T22:01:09.959Z,66.25
2023-02-09T22:04:00.305Z,56.23
2023-02-09T22:06:57.054Z,65.47
2023-02-09T22:09:56.509Z,62.55
2023-02-09T22:13:11.894Z,59.13
2023-02-09T22:16:26.713Z,63.42
2023-02-09T22:19:38.281Z,64.42
2023-02-09T22:22:52.007Z,64.80
2023-02-09T22:26:27.781Z,60.50
2023-02-09T22:29:46.160Z,54.00
2023-02-09T22:32:57.747Z,62.70
2023-02-09T22:36:11.042Z,56.40
2023-02-09T22:39:24.989Z,58.87
2023-02-09T22:42:38.268Z,55.15
2023-02-09T22:46:05.001Z,57.43
2023-02-09T22:49:16.215Z,54.98
2023-02-09T22:52:30.314Z,58.48
2023-02-09T22:55:49.442Z,52.93
2023-02-09T22:59:01.120Z,55.50
2023-02-09T23:02:26.098Z,58.78
2023-02-09T23:05:40.252Z,57.40
2023-02-09T23:08:51.133Z,54.23
2023-02-09T23:12:02.816Z,51.40
2023-02-09T23:15:15.135Z,54.98
2023-02-09T23:18:31.950Z,55.10
2023-02-09T23:21:52.754Z,52.33
2023-02-09T23:25:02.542Z,45.78
2023-02-09T23:28:19.073Z,50.05
2023-02-09T23:31:34.447Z,51.50
2023-02-09T23:34:46.271Z,51.23
2023-02-09T23:38:03.520Z,51.23
2023-02-09T23:41:26.703Z,50.30
2023-02-09T23:44:47.416Z,50.70
2023-02-09T23:47:59.421Z,47.38
2023-02-09T23:51:14.905Z,51.85
2023-02-09T23:54:24.856Z,53.02
2023-02-09T23:57:35.003Z,52.65
